Time,TemperatureF,DewpointF,PressureIn,WindDirection,WindDirectionDegrees,WindSpeedMPH,WindSpeedGustMPH,Humidity,HourlyPrecipIn,Conditions,Clouds,dailyrainin,SolarRadiationWatts/m^2,SoftwareType,DateUTC
2013-04-02 00:11:00,66.3,66.0,30.00,West,275,0.0,-999.0,100,-99.99,,,0.00,0,weatherlink.com 1.10,2013-04-02 04:11:00,
2013-04-02 00:26:00,66.0,66.0,30.00,West,275,2.0,-999.0,100,-99.99,,,0.00,0,weatherlink.com 1.10,2013-04-02 04:26:00,
2013-04-02 00:41:00,65.6,66.0,30.00,West,275,2.0,-999.0,100,-99.99,,,0.00,0,weatherlink.com 1.10,2013-04-02 04:41:00,
2013-04-02 00:56:00,65.3,65.0,30.00,West,275,0.0,-999.0,100,-99.99,,,0.00,0,weatherlink.com 1.10,2013-04-02 04:56:00,
2013-04-02 01:11:00,65.3,65.0,30.00,West,275,0.0,-999.0,100,-99.99,,,0.00,0,weatherlink.com 1.10,2013-04-02 05:11:00,
2013-04-02 01:26:00,65.2,65.0,30.00,West,275,0.0,-999.0,100,-99.99,,,0.00,0,weatherlink.com 1.10,2013-04-02 05:26:00,
2013-04-02 01:41:00,65.2,65.0,29.99,West,275,0.0,-999.0,100,-99.99,,,0.00,0,weatherlink.com 1.10,2013-04-02 05:41:00,
2013-04-02 01:56:00,65.0,65.0,30.00,West,275,0.0,-999.0,100,-99.99,,,0.00,0,weatherlink.com 1.10,2013-04-02 05:56:00,
2013-04-02 02:11:00,64.8,65.0,29.99,West,275,0.0,-999.0,100,-99.99,,,0.00,0,weatherlink.com 1.10,2013-04-02 06:11:00,
2013-04-02 02:27:00,64.5,65.0,29.99,West,275,0.0,-999.0,100,-99.99,,,0.00,0,weatherlink.com 1.10,2013-04-02 06:27:00,
2013-04-02 02:56:00,64.0,64.0,29.99,West,275,0.0,-999.0,100,-99.99,,,0.00,0,weatherlink.com 1.10,2013-04-02 06:56:00,
2013-04-02 03:11:00,63.7,64.0,29.99,West,275,0.0,-999.0,100,-99.99,,,0.00,0,weatherlink.com 1.10,2013-04-02 07:11:00,
2013-04-02 03:26:00,63.7,64.0,29.99,West,275,0.0,-999.0,100,-99.99,,,0.00,0,weatherlink.com 1.10,2013-04-02 07:26:00,
2013-04-02 03:41:00,63.9,64.0,29.99,West,275,0.0,-999.0,100,-99.99,,,0.00,0,weatherlink.com 1.10,2013-04-02 07:41:00,
2013-04-02 03:59:00,63.9,64.0,29.99,West,275,0.0,-999.0,100,-99.99,,,0.00,0,weatherlink.com 1.10,2013-04-02 07:59:00,
2013-04-02 04:26:00,63.9,64.0,30.00,West,275,0.0,-999.0,100,-99.99,,,0.00,0,weatherlink.com 1.10,2013-04-02 08:26:00,
2013-04-02 04:41:00,63.7,64.0,30.00,West,275,0.0,-999.0,100,-99.99,,,0.00,0,weatherlink.com 1.10,2013-04-02 08:41:00,
2013-04-02 04:56:00,63.1,63.0,30.00,West,275,0.0,-999.0,100,-99.99,,,0.00,0,weatherlink.com 1.10,2013-04-02 08:56:00,
2013-04-02 05:11:00,62.3,62.0,30.00,West,275,0.0,-999.0,100,-99.99,,,0.00,0,weatherlink.com 1.10,2013-04-02 09:11:00,
2013-04-02 05:26:00,62.1,62.0,30.01,West,275,0.0,-999.0,100,-99.99,,,0.00,0,weatherlink.com 1.10,2013-04-02 09:26:00,
2013-04-02 05:41:00,62.3,62.0,30.00,West,275,0.0,-999.0,100,-99.99,,,0.00,0,weatherlink.com 1.10,2013-04-02 09:41:00,
2013-04-02 05:56:00,62.0,62.0,30.00,West,275,0.0,-999.0,100,-99.99,,,0.01,0,weatherlink.com 1.10,2013-04-02 09:56:00,
2013-04-02 06:11:00,62.1,62.0,30.00,West,275,0.0,-999.0,100,-99.99,,,0.01,0,weatherlink.com 1.10,2013-04-02 10:11:00,
2013-04-02 06:26:00,62.3,62.0,30.00,West,275,0.0,-999.0,100,-99.99,,,0.01,0,weatherlink.com 1.10,2013-04-02 10:26:00,
2013-04-02 06:41:00,61.8,62.0,30.01,West,275,0.0,-999.0,100,-99.99,,,0.01,0,weatherlink.com 1.10,2013-04-02 10:41:00,
2013-04-02 06:56:00,61.5,62.0,30.02,West,275,0.0,-999.0,100,-99.99,,,0.01,0,weatherlink.com 1.10,2013-04-02 10:56:00,
2013-04-02 07:11:00,61.3,61.0,30.02,West,275,0.0,-999.0,100,-99.99,,,0.01,0,weatherlink.com 1.10,2013-04-02 11:11:00,
2013-04-02 07:26:00,61.3,61.0,30.03,West,275,1.0,-999.0,100,-99.99,,,0.01,11,weatherlink.com 1.10,2013-04-02 11:26:00,
2013-04-02 07:41:00,61.3,61.0,30.04,West,275,1.0,-999.0,100,-99.99,,,0.01,26,weatherlink.com 1.10,2013-04-02 11:41:00,
2013-04-02 07:56:00,62.0,62.0,30.04,West,275,0.0,-999.0,100,-99.99,,,0.01,60,weatherlink.com 1.10,2013-04-02 11:56:00,
2013-04-02 08:11:00,62.6,63.0,30.06,West,275,0.0,-999.0,100,-99.99,,,0.01,83,weatherlink.com 1.10,2013-04-02 12:11:00,
2013-04-02 08:26:00,62.9,63.0,30.06,West,275,0.0,-999.0,100,-99.99,,,0.01,123,weatherlink.com 1.10,2013-04-02 12:26:00,
2013-04-02 08:41:00,63.5,64.0,30.07,West,275,1.0,-999.0,100,-99.99,,,0.01,188,weatherlink.com 1.10,2013-04-02 12:41:00,
2013-04-02 08:56:00,63.9,64.0,30.07,WNW,288,0.0,-999.0,100,-99.99,,,0.01,246,weatherlink.com 1.10,2013-04-02 12:56:00,
2013-04-02 09:11:00,64.3,64.0,30.06,NW,306,0.0,-999.0,100,-99.99,,,0.01,264,weatherlink.com 1.10,2013-04-02 13:11:00,
2013-04-02 09:26:00,64.7,65.0,30.07,West,273,3.0,-999.0,100,-99.99,,,0.01,367,weatherlink.com 1.10,2013-04-02 13:26:00,
2013-04-02 09:41:00,65.5,66.0,30.07,West,277,3.0,-999.0,100,-99.99,,,0.01,420,weatherlink.com 1.10,2013-04-02 13:41:00,
2013-04-02 09:56:00,66.1,66.0,30.07,West,266,0.0,-999.0,98,-99.99,,,0.01,466,weatherlink.com 1.10,2013-04-02 13:56:00,
2013-04-02 10:11:00,67.1,65.0,30.07,WNW,291,4.0,-999.0,93,-99.99,,,0.01,517,weatherlink.com 1.10,2013-04-02 14:11:00,
2013-04-02 10:27:00,69.6,64.0,30.07,WNW,292,0.0,-999.0,83,-99.99,,,0.01,543,weatherlink.com 1.10,2013-04-02 14:27:00,
2013-04-02 10:41:00,72.5,63.0,30.07,NE,46,1.0,-999.0,73,-99.99,,,0.01,610,weatherlink.com 1.10,2013-04-02 14:41:00,
2013-04-02 10:56:00,73.5,61.0,30.07,WNW,294,3.0,-999.0,66,-99.99,,,0.01,598,weatherlink.com 1.10,2013-04-02 14:56:00,
2013-04-02 11:11:00,74.2,62.0,30.07,West,272,0.0,-999.0,65,-99.99,,,0.01,671,weatherlink.com 1.10,2013-04-02 15:11:00,
2013-04-02 11:26:00,75.1,61.0,30.08,WNW,293,0.0,-999.0,62,-99.99,,,0.01,693,weatherlink.com 1.10,2013-04-02 15:26:00,
2013-04-02 11:41:00,75.4,61.0,30.07,NW,312,0.0,-999.0,61,-99.99,,,0.01,775,weatherlink.com 1.10,2013-04-02 15:41:00,
2013-04-02 11:57:00,76.8,61.0,30.07,NW,313,2.0,-999.0,58,-99.99,,,0.01,819,weatherlink.com 1.10,2013-04-02 15:57:00,
2013-04-02 12:11:00,77.2,60.0,30.06,NW,305,4.0,-999.0,56,-99.99,,,0.01,795,weatherlink.com 1.10,2013-04-02 16:11:00,
2013-04-02 12:26:00,78.1,62.0,30.05,SW,219,0.0,-999.0,58,-99.99,,,0.01,882,weatherlink.com 1.10,2013-04-02 16:26:00,
2013-04-02 12:41:00,78.6,58.0,30.05,West,262,1.0,-999.0,50,-99.99,,,0.01,896,weatherlink.com 1.10,2013-04-02 16:41:00,
2013-04-02 12:56:00,79.2,60.0,30.05,SSW,195,3.0,-999.0,52,-99.99,,,0.01,926,weatherlink.com 1.10,2013-04-02 16:56:00,
2013-04-02 13:11:00,79.4,60.0,30.05,South,182,1.0,-999.0,51,-99.99,,,0.01,928,weatherlink.com 1.10,2013-04-02 17:11:00,
2013-04-02 13:26:00,80.3,63.0,30.04,NW,310,3.0,-999.0,56,-99.99,,,0.01,954,weatherlink.com 1.10,2013-04-02 17:26:00,
2013-04-02 13:41:00,81.2,60.0,30.04,NE,56,0.0,-999.0,49,-99.99,,,0.01,1005,weatherlink.com 1.10,2013-04-02 17:41:00,
2013-04-02 13:57:00,81.2,61.0,30.03,SW,227,4.0,-999.0,50,-99.99,,,0.01,1021,weatherlink.com 1.10,2013-04-02 17:57:00,
2013-04-02 14:11:00,82.2,60.0,30.03,NE,39,0.0,-999.0,47,-99.99,,,0.01,1090,weatherlink.com 1.10,2013-04-02 18:11:00,
2013-04-02 14:41:00,81.6,59.0,30.01,NW,308,2.0,-999.0,46,-99.99,,,0.01,253,weatherlink.com 1.10,2013-04-02 18:41:00,
2013-04-02 14:56:00,82.0,59.0,30.01,ENE,76,0.0,-999.0,46,-99.99,,,0.01,200,weatherlink.com 1.10,2013-04-02 18:56:00,
2013-04-02 15:57:00,84.9,59.0,29.98,SSW,209,0.0,-999.0,42,-99.99,,,0.01,851,weatherlink.com 1.10,2013-04-02 19:57:00,
2013-04-02 16:11:00,84.7,58.0,29.98,ESE,114,5.0,-999.0,41,-99.99,,,0.01,853,weatherlink.com 1.10,2013-04-02 20:11:00,
2013-04-02 16:26:00,84.5,60.0,29.98,NE,54,3.0,-999.0,43,-99.99,,,0.01,766,weatherlink.com 1.10,2013-04-02 20:26:00,
2013-04-02 16:42:00,84.0,59.0,29.98,NE,40,5.0,-999.0,43,-99.99,,,0.01,751,weatherlink.com 1.10,2013-04-02 20:42:00,
2013-04-02 16:56:00,84.1,58.0,29.98,ENE,76,0.0,-999.0,41,-99.99,,,0.01,744,weatherlink.com 1.10,2013-04-02 20:56:00,
2013-04-02 17:11:00,84.3,58.0,29.98,SSE,159,0.0,-999.0,41,-99.99,,,0.01,654,weatherlink.com 1.10,2013-04-02 21:11:00,
2013-04-02 17:26:00,86.1,58.0,29.98,NE,51,4.0,-999.0,39,-99.99,,,0.01,575,weatherlink.com 1.10,2013-04-02 21:26:00,
2013-04-02 17:57:00,85.3,56.0,29.98,SSW,198,1.0,-999.0,37,-99.99,,,0.01,455,weatherlink.com 1.10,2013-04-02 21:57:00,
2013-04-02 18:12:00,84.9,57.0,29.98,SSE,167,0.0,-999.0,38,-99.99,,,0.01,352,weatherlink.com 1.10,2013-04-02 22:12:00,
2013-04-02 18:26:00,84.0,56.0,29.98,ENE,71,0.0,-999.0,39,-99.99,,,0.01,264,weatherlink.com 1.10,2013-04-02 22:26:00,
2013-04-02 18:42:00,83.2,57.0,29.98,ESE,113,2.0,-999.0,41,-99.99,,,0.01,218,weatherlink.com 1.10,2013-04-02 22:42:00,
2013-04-02 19:12:00,81.1,56.0,29.98,ENE,57,0.0,-999.0,43,-99.99,,,0.01,35,weatherlink.com 1.10,2013-04-02 23:12:00,
2013-04-02 19:42:00,78.6,59.0,29.99,ESE,122,0.0,-999.0,51,-99.99,,,0.01,0,weatherlink.com 1.10,2013-04-02 23:42:00,
2013-04-02 20:12:00,76.0,60.0,30.00,ESE,103,2.0,-999.0,58,-99.99,,,0.01,0,weatherlink.com 1.10,2013-04-03 00:12:00,
2013-04-02 20:27:00,74.9,59.0,30.01,East,100,0.0,-999.0,59,-99.99,,,0.01,0,weatherlink.com 1.10,2013-04-03 00:27:00,
2013-04-02 20:42:00,74.0,60.0,30.02,ENE,60,0.0,-999.0,61,-99.99,,,0.01,0,weatherlink.com 1.10,2013-04-03 00:42:00,
2013-04-02 20:57:00,73.2,60.0,30.02,East,84,0.0,-999.0,63,-99.99,,,0.01,0,weatherlink.com 1.10,2013-04-03 00:57:00,
2013-04-02 21:12:00,72.3,59.0,30.04,East,81,0.0,-999.0,64,-99.99,,,0.01,0,weatherlink.com 1.10,2013-04-03 01:12:00,
2013-04-02 21:26:00,71.5,59.0,30.04,SSW,199,0.0,-999.0,65,-99.99,,,0.01,0,weatherlink.com 1.10,2013-04-03 01:26:00,
2013-04-02 21:42:00,70.6,60.0,30.05,SSW,199,0.0,-999.0,68,-99.99,,,0.01,0,weatherlink.com 1.10,2013-04-03 01:42:00,
2013-04-02 21:57:00,69.4,59.0,30.06,SSW,199,0.0,-999.0,70,-99.99,,,0.01,0,weatherlink.com 1.10,2013-04-03 01:57:00,
2013-04-02 22:12:00,69.1,59.0,30.06,SSW,199,0.0,-999.0,71,-99.99,,,0.01,0,weatherlink.com 1.10,2013-04-03 02:12:00,
2013-04-02 22:27:00,68.8,60.0,30.06,SSW,199,0.0,-999.0,73,-99.99,,,0.01,0,weatherlink.com 1.10,2013-04-03 02:27:00,
2013-04-02 22:41:00,68.3,60.0,30.06,SSW,199,0.0,-999.0,74,-99.99,,,0.01,0,weatherlink.com 1.10,2013-04-03 02:41:00,
2013-04-02 22:57:00,67.4,60.0,30.06,SSW,199,0.0,-999.0,76,-99.99,,,0.01,0,weatherlink.com 1.10,2013-04-03 02:57:00,
2013-04-02 23:11:00,66.8,60.0,30.06,SSW,199,0.0,-999.0,78,-99.99,,,0.01,0,weatherlink.com 1.10,2013-04-03 03:11:00,
2013-04-02 23:42:00,65.2,60.0,30.06,SSW,199,0.0,-999.0,82,-99.99,,,0.01,0,weatherlink.com 1.10,2013-04-03 03:42:00,
2013-04-02 23:57:00,64.5,60.0,30.06,SSW,199,0.0,-999.0,84,-99.99,,,0.01,0,weatherlink.com 1.10,2013-04-03 03:57:00,